createdAt,value
2022-10-18T00:00:43.948Z,99.90
2022-10-18T00:03:10.864Z,99.90
2022-10-18T00:05:37.614Z,99.90
2022-10-18T00:08:04.370Z,99.90
2022-10-18T00:10:31.084Z,99.90
2022-10-18T00:12:57.828Z,99.90
2022-10-18T00:15:24.758Z,99.90
2022-10-18T00:17:51.532Z,99.90
2022-10-18T00:20:18.285Z,99.90
2022-10-18T00:22:45.294Z,99.90
2022-10-18T00:25:12.279Z,99.90
2022-10-18T00:27:39.028Z,99.90
2022-10-18T00:30:06.429Z,99.90
2022-10-18T00:32:37.854Z,99.90
2022-10-18T00:35:05.419Z,99.90
2022-10-18T00:37:32.665Z,99.90
2022-10-18T00:39:59.553Z,99.90
2022-10-18T00:42:36.556Z,99.90
2022-10-18T00:45:13.216Z,99.90
2022-10-18T00:47:40.694Z,99.90
2022-10-18T00:50:08.439Z,99.90
2022-10-18T00:52:41.781Z,99.90
2022-10-18T00:55:08.966Z,99.90
2022-10-18T00:57:36.702Z,99.90
2022-10-18T01:00:09.630Z,99.90
2022-10-18T01:02:37.644Z,99.90
2022-10-18T01:05:05.105Z,99.90
2022-10-18T01:08:01.576Z,99.90
2022-10-18T01:10:28.274Z,99.90
2022-10-18T01:13:23.457Z,99.90
2022-10-18T01:15:52.617Z,99.90
2022-10-18T01:18:25.540Z,99.90
2022-10-18T01:21:21.534Z,99.90
2022-10-18T01:23:48.290Z,99.90
2022-10-18T01:26:24.268Z,99.90
2022-10-18T01:29:06.066Z,99.90
2022-10-18T01:31:55.289Z,99.90
2022-10-18T01:34:26.261Z,99.90
2022-10-18T01:36:53.991Z,99.90
2022-10-18T01:39:23.113Z,99.90
2022-10-18T01:41:51.440Z,99.90
2022-10-18T01:44:20.840Z,99.90
2022-10-18T01:46:47.629Z,99.90
2022-10-18T01:49:14.338Z,99.90
2022-10-18T01:51:41.033Z,99.90
2022-10-18T01:54:08.191Z,99.90
2022-10-18T01:56:38.166Z,99.90
2022-10-18T01:59:14.268Z,99.90
2022-10-18T02:01:43.921Z,99.90
2022-10-18T02:04:30.895Z,99.90
2022-10-18T02:07:02.467Z,99.90
2022-10-18T02:09:38.509Z,99.90
2022-10-18T02:12:07.687Z,99.90
2022-10-18T02:14:34.899Z,99.90
2022-10-18T02:17:02.207Z,99.90
2022-10-18T02:19:33.070Z,99.90
2022-10-18T02:21:59.989Z,99.90
2022-10-18T02:24:33.696Z,99.90
2022-10-18T02:27:00.419Z,99.90
2022-10-18T02:29:27.211Z,99.90
2022-10-18T02:32:02.902Z,99.90
2022-10-18T02:34:30.752Z,99.90
2022-10-18T02:36:59.294Z,99.90
2022-10-18T02:39:28.985Z,99.90
2022-10-18T02:41:56.717Z,99.90
2022-10-18T02:44:23.669Z,99.90
2022-10-18T02:46:50.369Z,99.90
2022-10-18T02:49:17.061Z,99.90
2022-10-18T02:51:43.958Z,99.90
2022-10-18T02:54:10.735Z,99.90
2022-10-18T02:56:37.383Z,99.90
2022-10-18T02:59:05.617Z,99.90
2022-10-18T03:01:33.403Z,99.90
2022-10-18T03:04:00.237Z,99.90
2022-10-18T03:06:26.910Z,99.90
2022-10-18T03:08:53.815Z,99.90
2022-10-18T03:11:20.490Z,99.90
2022-10-18T03:13:47.145Z,99.90
2022-10-18T03:16:13.918Z,99.90
2022-10-18T03:18:40.563Z,99.90
2022-10-18T03:21:07.694Z,99.90
2022-10-18T03:23:34.439Z,99.90
2022-10-18T03:26:01.276Z,99.90
2022-10-18T03:28:28.324Z,99.90
2022-10-18T03:30:59.702Z,99.90
2022-10-18T03:33:26.340Z,99.90
2022-10-18T03:35:52.983Z,99.90
2022-10-18T03:38:19.674Z,99.90
2022-10-18T03:40:46.320Z,99.90
2022-10-18T03:43:12.996Z,99.90
2022-10-18T03:45:40.135Z,99.90
2022-10-18T03:48:06.833Z,99.90
2022-10-18T03:50:33.486Z,99.90
2022-10-18T03:53:00.184Z,99.90
2022-10-18T03:55:26.880Z,99.90
2022-10-18T03:57:53.525Z,99.90
2022-10-18T04:00:20.238Z,99.90
2022-10-18T04:02:48.061Z,99.90
2022-10-18T04:05:16.294Z,99.90
2022-10-18T04:07:42.965Z,99.90
2022-10-18T04:10:09.691Z,99.90
2022-10-18T04:12:36.347Z,99.90
2022-10-18T04:15:03.711Z,99.90
2022-10-18T04:17:30.640Z,99.90
2022-10-18T04:19:57.467Z,99.90
2022-10-18T04:22:24.222Z,99.90
2022-10-18T04:24:53.105Z,99.90
2022-10-18T04:27:19.968Z,99.90
2022-10-18T04:29:46.668Z,99.90
2022-10-18T04:32:13.371Z,99.90
2022-10-18T04:34:40.104Z,99.90
2022-10-18T04:37:06.827Z,99.90
2022-10-18T04:39:33.489Z,99.90
2022-10-18T04:42:00.147Z,99.90
2022-10-18T04:44:26.879Z,99.90
2022-10-18T04:46:53.550Z,99.90
2022-10-18T04:49:20.200Z,99.90
2022-10-18T04:51:47.388Z,99.90
2022-10-18T04:54:14.112Z,99.90
2022-10-18T04:56:40.841Z,99.90
2022-10-18T04:59:07.528Z,99.90
2022-10-18T05:01:34.204Z,99.90
2022-10-18T05:04:00.909Z,99.90
2022-10-18T05:06:27.632Z,99.90
2022-10-18T05:08:54.773Z,99.90
2022-10-18T05:11:21.501Z,99.90
2022-10-18T05:13:50.173Z,99.90
2022-10-18T05:16:17.967Z,99.90
2022-10-18T05:18:44.656Z,99.90
2022-10-18T05:21:12.647Z,99.90
2022-10-18T05:23:39.621Z,99.90
2022-10-18T05:26:06.830Z,99.90
2022-10-18T05:28:39.712Z,99.90
2022-10-18T05:31:08.070Z,99.90
2022-10-18T05:33:35.092Z,99.90
2022-10-18T05:36:02.074Z,99.90
2022-10-18T05:38:31.073Z,99.90
2022-10-18T05:40:58.327Z,99.90
2022-10-18T05:43:27.673Z,99.90
2022-10-18T05:45:54.357Z,99.90
2022-10-18T05:48:21.229Z,99.90
2022-10-18T05:50:47.916Z,99.90
2022-10-18T05:53:35.134Z,99.90
2022-10-18T05:56:01.621Z,99.90
2022-10-18T05:58:28.385Z,99.90
2022-10-18T06:00:55.082Z,99.90
2022-10-18T06:03:21.780Z,99.90
2022-10-18T06:05:48.646Z,99.90
2022-10-18T06:08:15.307Z,99.90
2022-10-18T06:10:42.051Z,99.90
2022-10-18T06:13:08.717Z,99.90
2022-10-18T06:15:35.379Z,99.90
2022-10-18T06:18:02.165Z,99.90
2022-10-18T06:20:28.921Z,99.90
2022-10-18T06:22:55.562Z,99.90
2022-10-18T06:25:22.365Z,99.90
2022-10-18T06:27:49.047Z,99.90
2022-10-18T06:30:15.718Z,99.90
2022-10-18T06:32:42.441Z,99.90
2022-10-18T06:35:09.345Z,99.90
2022-10-18T06:37:36.957Z,99.90
2022-10-18T06:40:04.677Z,99.90
2022-10-18T06:42:31.987Z,99.90
2022-10-18T06:45:00.398Z,99.90
2022-10-18T06:47:27.154Z,99.90
2022-10-18T06:49:53.863Z,99.90
2022-10-18T06:52:25.489Z,99.90
2022-10-18T06:54:52.828Z,99.90
2022-10-18T06:57:20.378Z,99.90
2022-10-18T06:59:47.158Z,99.90
2022-10-18T07:02:19.656Z,99.90
2022-10-18T07:04:46.329Z,99.90
2022-10-18T07:07:12.997Z,99.90
2022-10-18T07:09:40.363Z,99.90
2022-10-18T07:12:07.106Z,99.90
2022-10-18T07:14:33.819Z,99.90
2022-10-18T07:17:00.573Z,99.90
2022-10-18T07:19:27.369Z,99.90
2022-10-18T07:21:54.015Z,99.90
2022-10-18T07:24:20.762Z,99.90
2022-10-18T07:26:47.485Z,99.90
2022-10-18T07:29:14.313Z,99.90
2022-10-18T07:31:41.129Z,99.90
2022-10-18T07:34:08.864Z,99.90
2022-10-18T07:36:35.574Z,99.90
2022-10-18T07:39:02.324Z,99.90
2022-10-18T07:41:29.285Z,99.90
2022-10-18T07:43:55.954Z,99.90
2022-10-18T07:46:23.053Z,99.90
2022-10-18T07:48:50.015Z,99.90
2022-10-18T07:51:17.364Z,99.90
2022-10-18T07:53:44.071Z,99.90
2022-10-18T07:56:15.963Z,99.90
2022-10-18T07:58:43.192Z,99.90
2022-10-18T08:01:10.036Z,99.90
2022-10-18T08:03:37.273Z,99.90
2022-10-18T08:06:05.078Z,99.90
2022-10-18T08:08:31.810Z,99.90
2022-10-18T08:11:02.351Z,97.90
2022-10-18T08:13:29.209Z,98.30
2022-10-18T08:16:02.776Z,98.00
2022-10-18T08:18:29.764Z,94.70
2022-10-18T08:20:56.502Z,94.90
2022-10-18T08:23:23.248Z,94.20
2022-10-18T08:25:49.912Z,94.20
2022-10-18T08:28:17.407Z,93.70
2022-10-18T08:30:44.252Z,93.40
2022-10-18T08:33:10.966Z,93.00
2022-10-18T08:35:37.759Z,91.80
2022-10-18T08:38:04.639Z,91.30
2022-10-18T08:40:33.814Z,86.70
2022-10-18T08:43:00.500Z,85.30
2022-10-18T08:45:41.944Z,85.70
2022-10-18T08:48:28.286Z,83.60
2022-10-18T08:50:56.297Z,79.90
2022-10-18T08:53:34.050Z,78.30
2022-10-18T08:56:11.109Z,78.40
2022-10-18T08:58:38.409Z,76.00
2022-10-18T09:01:08.370Z,75.50
2022-10-18T09:03:52.942Z,74.10
2022-10-18T09:06:25.628Z,72.40
2022-10-18T09:09:02.235Z,70.30
2022-10-18T09:11:34.882Z,70.00
2022-10-18T09:14:20.671Z,69.40
2022-10-18T09:16:53.131Z,68.40
2022-10-18T09:19:38.459Z,66.40
2022-10-18T09:22:13.214Z,66.40
2022-10-18T09:25:00.166Z,66.90
2022-10-18T09:27:41.005Z,67.20
2022-10-18T09:30:34.116Z,63.30
2022-10-18T09:33:19.926Z,63.20
2022-10-18T09:35:52.600Z,64.00
2022-10-18T09:38:21.490Z,61.10
2022-10-18T09:41:06.802Z,60.50
2022-10-18T09:43:45.450Z,60.90
2022-10-18T09:46:13.471Z,61.40
2022-10-18T09:48:49.071Z,64.00
2022-10-18T09:51:21.799Z,61.20
2022-10-18T09:53:54.433Z,61.20
2022-10-18T09:56:26.497Z,63.80
2022-10-18T09:58:53.167Z,61.50
2022-10-18T10:01:21.829Z,60.10
2022-10-18T10:03:48.569Z,59.40
2022-10-18T10:06:25.184Z,60.60
2022-10-18T10:08:59.943Z,59.90
2022-10-18T10:11:27.859Z,60.30
2022-10-18T10:14:14.195Z,59.30
2022-10-18T10:16:45.054Z,60.60
2022-10-18T10:19:18.955Z,60.90
2022-10-18T10:21:47.045Z,61.50
2022-10-18T10:24:36.969Z,60.50
2022-10-18T10:27:05.849Z,60.30
2022-10-18T10:29:51.491Z,62.10
2022-10-18T10:32:20.266Z,61.30
2022-10-18T10:34:47.025Z,61.90
2022-10-18T10:37:34.416Z,64.40
2022-10-18T10:40:17.938Z,62.70
2022-10-18T10:43:12.691Z,63.60
2022-10-18T10:45:57.010Z,62.90
2022-10-18T10:48:24.065Z,61.30
2022-10-18T10:50:55.179Z,60.70
2022-10-18T10:53:29.743Z,59.70
2022-10-18T10:55:57.495Z,59.70
2022-10-18T10:58:24.991Z,59.30
2022-10-18T11:00:51.838Z,59.30
2022-10-18T11:03:29.505Z,61.00
2022-10-18T11:05:58.048Z,59.70
2022-10-18T11:08:26.542Z,59.70
2022-10-18T11:10:56.442Z,60.70
2022-10-18T11:13:24.096Z,58.80
2022-10-18T11:15:53.381Z,59.80
2022-10-18T11:18:25.935Z,58.70
2022-10-18T11:21:07.947Z,58.40
2022-10-18T11:23:36.336Z,59.40
2022-10-18T11:26:12.411Z,58.10
2022-10-18T11:28:51.780Z,57.40
2022-10-18T11:31:22.874Z,57.90
2022-10-18T11:34:09.610Z,59.30
2022-10-18T11:36:45.502Z,58.70
2022-10-18T11:39:30.076Z,58.60
2022-10-18T11:42:15.558Z,56.40
2022-10-18T11:44:42.211Z,57.20
2022-10-18T11:47:14.549Z,57.50
2022-10-18T11:49:44.063Z,57.80
2022-10-18T11:52:20.002Z,57.90
2022-10-18T11:54:49.456Z,59.90
2022-10-18T11:57:16.107Z,59.30
2022-10-18T11:59:54.922Z,59.20
2022-10-18T12:02:22.853Z,57.70
2022-10-18T12:05:05.152Z,58.80
2022-10-18T12:08:01.164Z,58.00
2022-10-18T12:10:44.121Z,57.10
2022-10-18T12:13:23.044Z,57.70
2022-10-18T12:15:51.580Z,57.70
2022-10-18T12:18:20.201Z,56.00
2022-10-18T12:20:56.057Z,57.00
2022-10-18T12:23:38.498Z,55.50
2022-10-18T12:26:07.472Z,56.70
2022-10-18T12:28:42.677Z,56.30
2022-10-18T12:31:15.737Z,56.30
2022-10-18T12:33:44.822Z,55.80
2022-10-18T12:36:14.243Z,56.10
2022-10-18T12:38:42.611Z,55.60
2022-10-18T12:41:28.279Z,55.50
2022-10-18T12:43:59.136Z,56.00
2022-10-18T12:46:42.198Z,55.30
2022-10-18T12:49:10.739Z,55.00
2022-10-18T12:51:51.248Z,56.70
2022-10-18T12:54:28.466Z,56.60
2022-10-18T12:56:55.165Z,55.20
2022-10-18T12:59:26.383Z,55.60
2022-10-18T13:01:53.171Z,55.30
2022-10-18T13:04:29.229Z,55.50
2022-10-18T13:07:05.028Z,55.20
2022-10-18T13:09:31.677Z,54.90
2022-10-18T13:12:10.792Z,56.50
2022-10-18T13:15:05.831Z,55.80
2022-10-18T13:17:47.053Z,54.80
2022-10-18T13:20:31.765Z,54.30
2022-10-18T13:23:04.273Z,55.80
2022-10-18T13:25:52.538Z,56.00
2022-10-18T13:28:46.468Z,55.40
2022-10-18T13:31:44.976Z,57.40
2022-10-18T13:34:26.709Z,57.90
2022-10-18T13:37:02.446Z,59.00
2022-10-18T13:39:30.323Z,57.80
2022-10-18T13:41:57.661Z,58.30
2022-10-18T13:44:32.591Z,57.20
2022-10-18T13:47:02.079Z,57.10
2022-10-18T13:49:31.667Z,56.60
2022-10-18T13:52:43.204Z,56.00
2022-10-18T13:55:31.434Z,56.10
2022-10-18T13:58:04.237Z,57.40
2022-10-18T14:01:14.269Z,58.10
2022-10-18T14:03:57.469Z,57.90
2022-10-18T14:06:33.524Z,57.80
2022-10-18T14:09:32.817Z,57.80
2022-10-18T14:12:25.346Z,57.20
2022-10-18T14:15:02.590Z,57.90
2022-10-18T14:17:45.054Z,57.20
2022-10-18T14:20:17.759Z,58.60
2022-10-18T14:23:10.694Z,57.90
2022-10-18T14:25:38.327Z,58.00
2022-10-18T14:28:08.878Z,58.40
2022-10-18T14:30:51.446Z,58.30
2022-10-18T14:33:38.096Z,57.90
2022-10-18T14:36:10.264Z,57.50
2022-10-18T14:38:51.182Z,57.30
2022-10-18T14:41:26.884Z,57.30
2022-10-18T14:44:08.922Z,57.20
2022-10-18T14:46:41.900Z,57.40
2022-10-18T14:49:10.834Z,57.10
2022-10-18T14:51:39.110Z,57.30
2022-10-18T14:54:08.080Z,57.00
2022-10-18T14:56:38.838Z,57.60
2022-10-18T14:59:11.626Z,58.00
2022-10-18T15:01:39.253Z,58.60
2022-10-18T15:04:10.261Z,59.20
2022-10-18T15:06:42.161Z,58.90
2022-10-18T15:09:09.987Z,58.60
2022-10-18T15:11:37.054Z,60.30
2022-10-18T15:14:08.782Z,59.50
2022-10-18T15:16:38.355Z,59.70
2022-10-18T15:19:14.285Z,58.90
2022-10-18T15:25:05.996Z,59.10
2022-10-18T15:27:35.499Z,58.70
2022-10-18T15:30:13.979Z,59.30
2022-10-18T15:32:46.996Z,59.40
2022-10-18T15:35:23.477Z,59.50
2022-10-18T15:37:53.242Z,60.50
2022-10-18T15:40:22.906Z,59.60
2022-10-18T15:43:03.306Z,60.60
2022-10-18T15:45:31.940Z,60.60
2022-10-18T15:48:10.664Z,60.10
2022-10-18T15:50:47.586Z,62.00
2022-10-18T15:53:20.745Z,62.40
2022-10-18T15:55:58.723Z,63.20
2022-10-18T15:58:26.665Z,63.20
2022-10-18T16:00:55.956Z,62.80
2022-10-18T16:03:24.004Z,64.70
2022-10-18T16:05:56.103Z,64.60
2022-10-18T16:08:24.420Z,66.20
2022-10-18T16:10:51.711Z,66.90
2022-10-18T16:13:18.659Z,68.20
2022-10-18T16:15:45.561Z,69.40
2022-10-18T16:18:16.925Z,70.40
2022-10-18T16:20:43.697Z,71.10
2022-10-18T16:23:21.300Z,72.50
2022-10-18T16:25:48.334Z,74.20
2022-10-18T16:28:20.862Z,75.50
2022-10-18T16:30:52.683Z,75.40
2022-10-18T16:33:21.576Z,76.10
2022-10-18T16:35:48.895Z,76.50
2022-10-18T16:38:32.638Z,79.20
2022-10-18T16:41:05.645Z,79.00
2022-10-18T16:43:32.919Z,81.10
2022-10-18T16:45:59.724Z,82.40
2022-10-18T16:48:26.744Z,83.00
2022-10-18T16:50:54.555Z,83.90
2022-10-18T16:53:23.798Z,84.40
2022-10-18T16:55:58.154Z,87.10
2022-10-18T16:58:25.498Z,87.20
2022-10-18T17:00:52.807Z,88.40
2022-10-18T17:03:19.757Z,88.70
2022-10-18T17:05:46.454Z,89.20
2022-10-18T17:08:20.653Z,90.60
2022-10-18T17:10:48.149Z,90.90
2022-10-18T17:13:14.894Z,91.10
2022-10-18T17:15:42.528Z,91.20
2022-10-18T17:18:11.166Z,92.00
2022-10-18T17:20:37.834Z,91.80
2022-10-18T17:23:04.730Z,92.10
2022-10-18T17:27:57.909Z,93.00
2022-10-18T17:30:24.645Z,93.20
2022-10-18T17:32:51.327Z,93.80
2022-10-18T17:35:18.059Z,94.00
2022-10-18T17:37:47.354Z,95.00
2022-10-18T17:40:15.094Z,94.80
2022-10-18T17:42:41.821Z,94.20
2022-10-18T17:45:09.052Z,94.40
2022-10-18T17:47:35.883Z,94.90
2022-10-18T17:50:02.676Z,95.60
2022-10-18T17:52:29.357Z,95.50
2022-10-18T17:54:56.004Z,95.60
2022-10-18T17:57:22.644Z,95.90
2022-10-18T17:59:49.410Z,95.60
2022-10-18T18:02:16.117Z,96.20
2022-10-18T18:04:42.815Z,96.90
2022-10-18T18:07:09.510Z,96.30
2022-10-18T18:09:36.181Z,96.10
2022-10-18T18:12:02.855Z,96.30
2022-10-18T18:14:29.642Z,96.30
2022-10-18T18:16:56.424Z,97.10
2022-10-18T18:19:23.988Z,98.00
2022-10-18T18:21:53.687Z,97.80
2022-10-18T18:24:24.677Z,97.60
2022-10-18T18:26:53.160Z,97.60
2022-10-18T18:29:20.822Z,97.80
2022-10-18T18:31:47.661Z,97.70
2022-10-18T18:34:14.700Z,97.30
2022-10-18T18:36:41.830Z,97.60
2022-10-18T18:39:09.213Z,97.60
2022-10-18T18:41:37.423Z,97.80
2022-10-18T18:44:05.677Z,97.90
2022-10-18T18:46:36.599Z,97.90
2022-10-18T18:49:03.751Z,97.40
2022-10-18T18:51:32.146Z,97.40
2022-10-18T18:53:59.249Z,97.90
2022-10-18T18:56:28.841Z,97.90
2022-10-18T18:58:56.754Z,98.10
2022-10-18T19:01:24.986Z,98.10
2022-10-18T19:03:52.431Z,98.60
2022-10-18T19:06:22.366Z,98.40
2022-10-18T19:08:49.507Z,98.40
2022-10-18T19:11:18.068Z,98.70
2022-10-18T19:13:44.793Z,98.30
2022-10-18T19:16:25.599Z,98.40
2022-10-18T19:18:57.127Z,98.60
2022-10-18T19:21:25.694Z,98.90
2022-10-18T19:23:52.417Z,98.60
2022-10-18T19:26:26.633Z,99.30
2022-10-18T19:28:53.432Z,99.90
2022-10-18T19:31:20.241Z,99.90
2022-10-18T19:33:58.740Z,99.80
2022-10-18T19:36:26.236Z,99.70
2022-10-18T19:38:52.970Z,99.90
2022-10-18T19:41:19.669Z,99.90
2022-10-18T19:43:46.409Z,99.90
2022-10-18T19:46:13.120Z,99.90
2022-10-18T19:48:39.849Z,99.90
2022-10-18T19:51:08.979Z,99.90
2022-10-18T19:53:36.687Z,99.90
2022-10-18T19:56:04.372Z,99.90
2022-10-18T19:58:31.585Z,99.90
2022-10-18T20:01:00.307Z,99.90
2022-10-18T20:03:30.292Z,99.90
2022-10-18T20:06:01.016Z,99.90
2022-10-18T20:08:28.627Z,99.90
2022-10-18T20:10:55.387Z,99.90
2022-10-18T20:13:22.479Z,99.90
2022-10-18T20:15:50.164Z,99.90
2022-10-18T20:18:17.813Z,99.90
2022-10-18T20:20:47.340Z,99.90
2022-10-18T20:23:18.223Z,99.90
2022-10-18T20:25:58.082Z,99.90
2022-10-18T20:28:25.386Z,99.90
2022-10-18T20:31:10.968Z,99.90
2022-10-18T20:33:38.088Z,99.90
2022-10-18T20:36:06.066Z,99.90
2022-10-18T20:38:35.186Z,99.90
2022-10-18T20:41:06.049Z,99.90
2022-10-18T20:43:33.040Z,99.90
2022-10-18T20:46:00.329Z,99.90
2022-10-18T20:48:27.909Z,99.90
2022-10-18T20:50:54.630Z,99.90
2022-10-18T20:53:22.491Z,99.90
2022-10-18T20:55:49.535Z,99.90
2022-10-18T20:58:16.437Z,99.90
2022-10-18T21:00:43.220Z,99.90
2022-10-18T21:03:09.922Z,99.90
2022-10-18T21:05:36.596Z,99.90
2022-10-18T21:08:03.295Z,99.90
2022-10-18T21:10:29.944Z,99.90
2022-10-18T21:12:56.592Z,99.90
2022-10-18T21:15:23.261Z,99.90
2022-10-18T21:17:51.888Z,99.90
2022-10-18T21:20:18.564Z,99.90
2022-10-18T21:22:45.263Z,99.90
2022-10-18T21:25:12.055Z,99.90
2022-10-18T21:27:38.939Z,99.90
2022-10-18T21:30:05.869Z,99.90
2022-10-18T21:32:32.722Z,99.90
2022-10-18T21:35:00.044Z,99.90
2022-10-18T21:37:26.749Z,99.90
2022-10-18T21:39:53.437Z,99.90
2022-10-18T21:42:20.084Z,99.90
2022-10-18T21:44:46.781Z,99.90
2022-10-18T21:47:13.685Z,99.90
2022-10-18T21:49:40.363Z,99.90
2022-10-18T21:52:07.067Z,99.90
2022-10-18T21:54:33.711Z,99.90
2022-10-18T21:57:00.400Z,99.90
2022-10-18T21:59:27.121Z,99.90
2022-10-18T22:01:56.373Z,99.90
2022-10-18T22:04:24.321Z,99.90
2022-10-18T22:06:51.953Z,99.90
2022-10-18T22:09:19.234Z,99.90
2022-10-18T22:11:47.662Z,99.90
2022-10-18T22:14:14.396Z,99.90
2022-10-18T22:16:41.090Z,99.90
2022-10-18T22:19:07.885Z,99.90
2022-10-18T22:21:34.689Z,99.90
2022-10-18T22:24:03.717Z,99.90
2022-10-18T22:26:33.413Z,99.90
2022-10-18T22:29:01.320Z,99.90
2022-10-18T22:31:29.789Z,99.90
2022-10-18T22:33:57.684Z,99.90
2022-10-18T22:36:24.790Z,99.90
2022-10-18T22:38:51.597Z,99.90
2022-10-18T22:41:18.627Z,99.90
2022-10-18T22:43:45.481Z,99.90
2022-10-18T22:46:12.919Z,99.90
2022-10-18T22:48:39.844Z,99.90
2022-10-18T22:51:06.789Z,99.90
2022-10-18T22:53:33.510Z,99.90
2022-10-18T22:56:00.443Z,99.90
2022-10-18T22:58:27.196Z,99.90
2022-10-18T23:01:10.471Z,99.90
2022-10-18T23:03:37.602Z,99.90
2022-10-18T23:06:05.014Z,99.90
2022-10-18T23:08:31.942Z,99.90
2022-10-18T23:10:59.564Z,99.90
2022-10-18T23:13:26.985Z,99.90
2022-10-18T23:15:53.779Z,99.90
2022-10-18T23:18:20.473Z,99.90
2022-10-18T23:20:47.142Z,99.90
2022-10-18T23:23:13.901Z,99.90
2022-10-18T23:25:40.883Z,99.90
2022-10-18T23:28:07.591Z,99.90
2022-10-18T23:30:34.367Z,99.90
2022-10-18T23:33:01.111Z,99.90
2022-10-18T23:35:28.815Z,99.90
2022-10-18T23:37:55.679Z,99.90
2022-10-18T23:40:22.368Z,99.90
2022-10-18T23:42:49.060Z,99.90
2022-10-18T23:45:15.736Z,99.90
2022-10-18T23:47:42.437Z,99.90
2022-10-18T23:50:09.270Z,99.90
2022-10-18T23:52:35.929Z,99.90
2022-10-18T23:55:02.738Z,99.90
2022-10-18T23:57:29.473Z,99.90
2022-10-18T23:59:56.142Z,99.90
